Time;durP1;ratioP1;P1;durP2;ratioP2;P2;SDS_P1;SDS_P2;PMS_P1;PMS_P2;Temp;Humidity;BMP_temperature;BMP_pressure;BME280_temperature;BME280_humidity;BME280_pressure;Samples;Min_cycle;Max_cycle;Signal;HPM_P1;HPM_P2
2021/03/12 00:00:30;;;;;;;13.10;2.50;;;7.20;99.90;;;;;;5099170;28;20207;-83
2021/03/12 00:02:56;;;;;;;11.27;3.07;;;7.10;99.90;;;;;;5099176;28;20205;-82
2021/03/12 00:05:22;;;;;;;8.53;2.33;;;7.20;99.90;;;;;;5099123;28;20306;-84
2021/03/12 00:07:49;;;;;;;13.20;3.23;;;7.10;99.90;;;;;;5100284;28;20198;-83
2021/03/12 00:10:18;;;;;;;14.90;3.20;;;7.10;99.90;;;;;;5100052;28;20288;-83
2021/03/12 00:12:45;;;;;;;11.33;2.10;;;7.10;99.90;;;;;;5099883;28;20302;-83
2021/03/12 00:15:14;;;;;;;14.00;2.80;;;7.20;99.90;;;;;;5099611;28;20197;-84
2021/03/12 00:17:41;;;;;;;13.97;2.87;;;7.20;99.90;;;;;;5098300;28;20220;-83
2021/03/12 00:20:10;;;;;;;14.23;3.00;;;7.20;99.90;;;;;;5095206;28;20205;-83
2021/03/12 00:22:36;;;;;;;13.77;2.77;;;7.20;99.90;;;;;;5098913;28;20238;-85
2021/03/12 00:25:03;;;;;;;15.83;3.00;;;7.20;99.90;;;;;;5099914;28;20205;-84
2021/03/12 00:27:30;;;;;;;10.47;2.40;;;7.30;99.90;;;;;;5099282;28;20197;-85
2021/03/12 00:29:57;;;;;;;11.90;2.83;;;7.20;99.90;;;;;;5099996;28;20301;-83
2021/03/12 00:32:23;;;;;;;14.63;3.13;;;7.30;99.90;;;;;;5100170;28;20230;-84
2021/03/12 00:34:50;;;;;;;15.97;2.97;;;7.20;99.90;;;;;;5098238;28;20220;-83
2021/03/12 00:37:16;;;;;;;12.23;3.37;;;7.30;99.90;;;;;;5099078;28;20210;-83
2021/03/12 00:39:43;;;;;;;17.93;2.87;;;7.30;99.90;;;;;;5099262;28;20739;-83
2021/03/12 00:42:09;;;;;;;12.50;3.17;;;7.10;99.90;;;;;;5098585;28;20217;-82
2021/03/12 00:44:35;;;;;;;17.43;3.30;;;7.10;99.90;;;;;;5098044;28;21354;-84
2021/03/12 00:47:03;;;;;;;9.60;2.50;;;7.00;99.90;;;;;;5102129;28;20575;-83
2021/03/12 00:49:29;;;;;;;12.83;2.90;;;7.00;99.90;;;;;;5098149;28;20292;-84
2021/03/12 00:51:55;;;;;;;13.60;3.13;;;6.90;99.90;;;;;;5098558;28;20224;-82
2021/03/12 00:54:22;;;;;;;17.13;3.50;;;7.00;99.90;;;;;;5099765;28;20349;-82
2021/03/12 00:56:49;;;;;;;16.63;3.47;;;7.00;99.90;;;;;;5096957;28;20232;-83
2021/03/12 00:59:15;;;;;;;19.40;3.33;;;7.20;99.90;;;;;;5097479;28;20206;-82
2021/03/12 01:01:43;;;;;;;14.37;3.43;;;7.10;99.90;;;;;;5097966;28;20226;-85
2021/03/12 01:04:10;;;;;;;15.47;3.33;;;7.10;99.90;;;;;;5098243;28;20212;-84
2021/03/12 01:06:36;;;;;;;11.60;2.97;;;7.20;99.90;;;;;;5098742;28;20300;-82
2021/03/12 01:09:03;;;;;;;8.40;2.27;;;7.20;99.90;;;;;;5099481;28;20200;-82
2021/03/12 01:11:30;;;;;;;14.43;3.30;;;7.30;99.90;;;;;;5099945;28;20202;-83
2021/03/12 01:13:56;;;;;;;12.17;2.87;;;7.30;99.90;;;;;;5100573;28;20297;-82
2021/03/12 01:16:22;;;;;;;11.77;3.50;;;7.30;99.90;;;;;;5100679;28;20193;-83
2021/03/12 01:18:49;;;;;;;9.73;2.30;;;7.30;99.90;;;;;;5098073;28;20260;-82
2021/03/12 01:21:16;;;;;;;9.53;2.67;;;7.50;99.90;;;;;;5097903;28;20312;-82
2021/03/12 01:23:43;;;;;;;10.37;2.33;;;7.50;99.90;;;;;;5096629;28;20198;-82
2021/03/12 01:26:09;;;;;;;9.90;2.30;;;7.40;99.90;;;;;;5099893;28;20226;-82
2021/03/12 01:28:35;;;;;;;11.10;2.50;;;7.50;99.90;;;;;;5099850;28;20220;-84
2021/03/12 01:31:02;;;;;;;9.27;2.20;;;7.50;99.90;;;;;;5098596;28;20216;-82
2021/03/12 01:33:28;;;;;;;10.47;2.07;;;7.50;99.90;;;;;;5099437;28;20205;-82
2021/03/12 01:35:55;;;;;;;12.07;2.80;;;7.40;99.90;;;;;;5098824;28;20289;-82
2021/03/12 01:38:22;;;;;;;8.90;2.20;;;7.40;99.90;;;;;;5096724;28;20219;-82
2021/03/12 01:40:50;;;;;;;5.63;2.00;;;7.40;99.90;;;;;;5096672;28;20321;-82
2021/03/12 01:43:17;;;;;;;8.03;2.70;;;7.40;99.90;;;;;;5097892;28;20205;-83
2021/03/12 01:45:45;;;;;;;14.17;2.80;;;7.30;99.90;;;;;;5100960;28;20231;-83
2021/03/12 01:48:14;;;;;;;9.20;2.43;;;7.40;99.90;;;;;;5096452;28;20202;-81
2021/03/12 01:50:42;;;;;;;11.40;2.40;;;7.30;99.90;;;;;;5096938;28;20198;-81
2021/03/12 01:53:09;;;;;;;16.77;2.93;;;7.50;99.90;;;;;;5099072;28;20205;-83
2021/03/12 01:55:37;;;;;;;10.90;3.00;;;7.30;99.90;;;;;;5098549;28;20190;-83
2021/03/12 01:58:04;;;;;;;11.00;2.80;;;7.30;99.90;;;;;;5097037;28;20243;-82
2021/03/12 02:00:30;;;;;;;13.97;2.63;;;7.30;99.90;;;;;;5096953;28;21357;-83
2021/03/12 02:02:57;;;;;;;12.07;3.07;;;7.30;99.90;;;;;;5097506;28;20217;-84
2021/03/12 02:05:24;;;;;;;14.93;3.30;;;7.30;99.90;;;;;;5099540;28;20282;-83
2021/03/12 02:07:51;;;;;;;14.83;2.70;;;7.20;99.90;;;;;;5096885;28;20247;-82
2021/03/12 02:10:21;;;;;;;15.17;3.03;;;7.10;99.90;;;;;;5096354;28;20221;-84
2021/03/12 02:12:55;;;;;;;14.83;3.40;;;7.10;99.90;;;;;;5097048;28;20217;-83
2021/03/12 02:15:28;;;;;;;16.10;3.03;;;7.10;99.90;;;;;;5097283;28;20204;-83
2021/03/12 02:18:03;;;;;;;15.03;3.07;;;7.10;99.90;;;;;;5098819;28;20204;-82
2021/03/12 02:20:43;;;;;;;15.47;3.73;;;7.10;99.90;;;;;;5099535;28;20201;-83
2021/03/12 02:23:21;;;;;;;17.70;3.23;;;7.10;99.90;;;;;;5100077;28;20196;-83
2021/03/12 02:25:56;;;;;;;17.57;3.00;;;7.10;99.90;;;;;;5100076;28;20212;-82
2021/03/12 02:28:24;;;;;;;15.13;2.87;;;7.10;99.90;;;;;;5100328;28;20648;-83
2021/03/12 02:30:50;;;;;;;16.30;2.83;;;7.10;99.90;;;;;;5100677;28;20270;-84
2021/03/12 02:33:20;;;;;;;15.70;3.30;;;7.00;99.90;;;;;;5100540;28;20212;-82
2021/03/12 02:35:47;;;;;;;14.97;2.93;;;7.00;99.90;;;;;;5099672;28;20285;-83
2021/03/12 02:38:14;;;;;;;14.30;3.07;;;6.90;99.90;;;;;;5100269;28;20253;-82
2021/03/12 02:40:43;;;;;;;15.10;3.20;;;6.90;99.90;;;;;;5099602;28;20587;-82
2021/03/12 02:43:11;;;;;;;16.90;3.50;;;6.80;99.90;;;;;;5099662;28;20205;-83
2021/03/12 02:45:38;;;;;;;12.73;2.53;;;6.80;99.90;;;;;;5099617;28;20208;-82
2021/03/12 02:48:05;;;;;;;19.80;3.33;;;6.80;99.90;;;;;;5099219;28;20198;-82
2021/03/12 02:50:32;;;;;;;12.97;2.77;;;6.90;99.90;;;;;;5098478;28;20673;-82
2021/03/12 02:52:59;;;;;;;12.03;3.10;;;7.00;99.90;;;;;;5099693;28;20202;-82
2021/03/12 02:55:26;;;;;;;12.80;3.60;;;6.90;99.90;;;;;;5099459;28;20688;-83
2021/03/12 02:57:52;;;;;;;14.90;2.87;;;7.00;99.90;;;;;;5099739;28;20204;-83
2021/03/12 03:00:19;;;;;;;17.33;3.00;;;6.90;99.90;;;;;;5105648;28;20202;-82
2021/03/12 03:02:49;;;;;;;16.87;3.13;;;6.90;99.90;;;;;;5101625;28;20222;-82
2021/03/12 03:05:16;;;;;;;20.10;3.50;;;6.90;99.90;;;;;;5099043;28;20738;-82
2021/03/12 03:07:47;;;;;;;15.33;2.87;;;6.80;99.90;;;;;;5102928;28;20606;-82
2021/03/12 03:10:14;;;;;;;17.00;3.53;;;6.70;99.90;;;;;;5099628;28;20208;-82
2021/03/12 03:12:43;;;;;;;14.13;3.60;;;6.90;99.90;;;;;;5098739;28;20206;-82
2021/03/12 03:15:11;;;;;;;17.53;3.60;;;6.80;99.90;;;;;;5098924;28;20661;-83
2021/03/12 03:17:39;;;;;;;16.33;3.30;;;6.70;99.90;;;;;;5098942;28;21414;-83
2021/03/12 03:20:10;;;;;;;15.00;3.00;;;6.60;99.90;;;;;;5098362;28;20293;-84
2021/03/12 03:22:38;;;;;;;11.67;3.23;;;6.60;99.90;;;;;;5097885;28;20206;-82
2021/03/12 03:25:06;;;;;;;17.60;3.20;;;6.60;99.90;;;;;;5099122;28;20269;-82
2021/03/12 03:27:32;;;;;;;15.20;2.87;;;6.60;99.90;;;;;;5098336;28;20278;-82
2021/03/12 03:29:59;;;;;;;17.30;2.80;;;6.70;99.90;;;;;;5094571;28;20202;-80
2021/03/12 03:32:25;;;;;;;10.30;2.70;;;6.60;99.90;;;;;;5098516;28;20616;-81
2021/03/12 03:34:51;;;;;;;13.87;3.13;;;6.60;99.90;;;;;;5098619;28;20665;-81
2021/03/12 03:37:18;;;;;;;17.10;3.77;;;6.60;99.90;;;;;;5096690;28;20210;-80
2021/03/12 03:39:45;;;;;;;10.70;3.20;;;6.60;99.90;;;;;;5098123;28;20194;-80
2021/03/12 03:42:13;;;;;;;11.80;2.60;;;6.60;99.90;;;;;;5088422;28;20600;-81
2021/03/12 03:44:42;;;;;;;13.67;2.83;;;6.70;99.90;;;;;;5097009;28;20657;-83
2021/03/12 03:47:10;;;;;;;17.93;4.03;;;6.70;99.90;;;;;;5101525;28;20229;-82
2021/03/12 03:49:38;;;;;;;13.00;3.40;;;6.70;99.90;;;;;;5099333;28;20213;-83
2021/03/12 03:52:07;;;;;;;18.00;3.43;;;6.70;99.90;;;;;;5099641;28;20296;-83
2021/03/12 03:54:36;;;;;;;12.70;4.00;;;6.60;99.90;;;;;;5102056;28;20242;-82
2021/03/12 03:57:03;;;;;;;18.63;3.43;;;6.70;99.90;;;;;;5099526;28;20303;-83
2021/03/12 03:59:31;;;;;;;20.43;4.13;;;6.70;99.90;;;;;;5098403;28;20208;-82
2021/03/12 04:01:58;;;;;;;18.13;4.00;;;6.60;99.90;;;;;;5099878;28;20312;-83
2021/03/12 04:04:25;;;;;;;14.43;3.50;;;6.70;99.90;;;;;;5100729;28;20212;-82
2021/03/12 04:06:52;;;;;;;17.47;4.13;;;6.70;99.90;;;;;;5100345;28;20288;-82
2021/03/12 04:09:19;;;;;;;18.57;3.60;;;6.70;99.90;;;;;;5099282;28;20205;-82
2021/03/12 04:11:47;;;;;;;19.40;3.53;;;6.70;99.90;;;;;;5095610;28;20206;-83
2021/03/12 04:14:14;;;;;;;15.17;3.47;;;6.70;99.90;;;;;;5098387;28;20686;-82
2021/03/12 04:16:41;;;;;;;16.33;3.07;;;6.70;99.90;;;;;;5098417;28;20250;-84
2021/03/12 04:19:09;;;;;;;20.17;4.17;;;6.60;99.90;;;;;;5103357;28;20202;-82
2021/03/12 04:21:35;;;;;;;17.50;3.30;;;6.60;99.90;;;;;;5100306;28;20213;-80
2021/03/12 04:24:03;;;;;;;18.63;3.40;;;6.60;99.90;;;;;;5099924;28;20201;-82
2021/03/12 04:26:30;;;;;;;15.80;3.93;;;6.40;99.90;;;;;;5097059;28;20210;-82
2021/03/12 04:28:58;;;;;;;19.17;4.27;;;6.50;99.90;;;;;;5097479;28;20840;-82
2021/03/12 04:31:26;;;;;;;18.43;4.23;;;6.40;99.90;;;;;;5097448;28;20246;-82
2021/03/12 04:33:52;;;;;;;22.20;4.70;;;6.40;99.90;;;;;;5098199;28;20240;-83
2021/03/12 04:36:19;;;;;;;15.83;4.07;;;6.20;99.90;;;;;;5099153;28;20212;-82
2021/03/12 04:38:46;;;;;;;17.43;4.20;;;6.20;99.90;;;;;;5099910;28;20231;-82
2021/03/12 04:41:14;;;;;;;14.33;3.10;;;6.10;99.90;;;;;;5095276;28;20228;-82
2021/03/12 04:43:41;;;;;;;19.03;4.87;;;6.00;99.90;;;;;;5096164;28;20216;-82
2021/03/12 04:46:08;;;;;;;21.90;4.00;;;6.00;99.90;;;;;;5098165;28;20204;-81
2021/03/12 04:48:36;;;;;;;18.60;3.93;;;6.00;99.90;;;;;;5099189;28;20208;-81
2021/03/12 04:51:06;;;;;;;19.57;3.63;;;5.90;99.90;;;;;;5099121;28;20209;-81
2021/03/12 04:53:32;;;;;;;23.57;4.03;;;5.90;99.90;;;;;;5099968;28;20216;-82
2021/03/12 04:55:59;;;;;;;26.33;5.47;;;5.80;99.90;;;;;;5100266;28;20757;-82
2021/03/12 04:58:25;;;;;;;15.67;3.83;;;5.80;99.90;;;;;;5097315;28;20206;-82
2021/03/12 05:00:53;;;;;;;18.83;3.53;;;5.70;99.90;;;;;;5098728;28;20193;-82
2021/03/12 05:03:21;;;;;;;25.97;4.37;;;5.70;99.90;;;;;;5099156;28;20285;-82
2021/03/12 05:05:49;;;;;;;17.87;3.80;;;5.70;99.90;;;;;;5097701;28;20720;-83
2021/03/12 05:08:15;;;;;;;15.73;3.53;;;5.80;99.90;;;;;;5099098;28;20209;-83
2021/03/12 05:10:56;;;;;;;19.63;3.73;;;5.70;99.90;;;;;;5100003;28;20263;-83
2021/03/12 05:13:23;;;;;;;24.27;4.20;;;5.70;99.90;;;;;;5095072;28;20194;-81
2021/03/12 05:15:49;;;;;;;21.63;3.37;;;5.70;99.90;;;;;;5098823;28;20214;-80
2021/03/12 05:18:16;;;;;;;20.47;4.00;;;5.70;99.90;;;;;;5098210;28;20212;-82
2021/03/12 05:20:43;;;;;;;18.57;3.90;;;5.80;99.90;;;;;;5100871;28;20201;-84
2021/03/12 05:23:09;;;;;;;19.83;4.37;;;5.70;99.90;;;;;;5100629;28;20225;-81
2021/03/12 05:25:36;;;;;;;16.63;3.37;;;5.70;99.90;;;;;;5099266;28;20638;-81
2021/03/12 05:28:02;;;;;;;23.47;4.43;;;5.60;99.90;;;;;;5099255;28;20793;-81
2021/03/12 05:30:28;;;;;;;20.33;3.77;;;5.70;99.90;;;;;;5098308;28;20220;-82
2021/03/12 05:32:55;;;;;;;15.30;3.43;;;5.70;99.90;;;;;;5097986;28;20747;-83
2021/03/12 05:35:21;;;;;;;19.53;4.57;;;5.70;99.90;;;;;;5099586;28;20292;-83
2021/03/12 05:37:48;;;;;;;19.87;3.50;;;5.70;99.90;;;;;;5099208;28;20205;-82
2021/03/12 05:40:15;;;;;;;16.80;3.90;;;5.70;99.90;;;;;;5095669;28;20197;-83
2021/03/12 05:42:43;;;;;;;18.57;3.40;;;5.80;99.90;;;;;;5099035;28;20233;-83
2021/03/12 05:45:11;;;;;;;17.73;4.23;;;5.80;99.90;;;;;;5097028;28;20202;-84
2021/03/12 05:47:38;;;;;;;16.93;4.43;;;5.90;99.90;;;;;;5098190;28;20194;-82
2021/03/12 05:50:06;;;;;;;21.07;3.53;;;5.90;99.90;;;;;;5097308;28;20237;-83
2021/03/12 05:52:33;;;;;;;23.13;3.67;;;5.90;99.90;;;;;;5098169;28;20209;-83
2021/03/12 05:55:01;;;;;;;20.30;5.57;;;5.80;99.90;;;;;;5103115;28;20250;-83
2021/03/12 05:57:29;;;;;;;18.63;3.43;;;5.80;99.90;;;;;;5100664;28;20206;-84
2021/03/12 05:59:58;;;;;;;17.43;4.00;;;5.80;99.90;;;;;;5101647;28;20197;-83
2021/03/12 06:02:24;;;;;;;21.50;3.83;;;5.90;99.90;;;;;;5101115;28;20221;-82
2021/03/12 06:04:51;;;;;;;24.90;5.03;;;5.90;99.90;;;;;;5100659;28;20206;-83
2021/03/12 06:07:17;;;;;;;14.77;3.90;;;5.90;99.90;;;;;;5101155;28;20209;-82
2021/03/12 06:09:44;;;;;;;16.53;4.13;;;5.90;99.90;;;;;;5101683;28;20193;-82
2021/03/12 06:12:13;;;;;;;18.83;4.07;;;6.00;99.90;;;;;;5101969;28;20198;-81
2021/03/12 06:14:51;;;;;;;18.27;3.70;;;5.90;99.90;;;;;;5100928;28;20201;-80
2021/03/12 06:17:34;;;;;;;25.17;6.20;;;5.90;99.90;;;;;;5102981;28;20306;-79
2021/03/12 06:20:03;;;;;;;16.70;4.43;;;5.90;99.90;;;;;;5104861;28;20590;-79
2021/03/12 06:22:31;;;;;;;14.47;4.57;;;5.90;99.90;;;;;;5107528;28;20222;-79
2021/03/12 06:25:12;;;;;;;16.77;4.53;;;6.00;99.90;;;;;;5107000;28;20285;-84
2021/03/12 06:27:39;;;;;;;21.40;4.67;;;5.90;99.90;;;;;;5100593;28;20197;-79
2021/03/12 06:30:07;;;;;;;19.07;4.67;;;6.00;99.90;;;;;;5099779;28;20250;-79
2021/03/12 06:32:38;;;;;;;19.57;5.03;;;6.00;99.90;;;;;;5103275;28;20216;-80
2021/03/12 06:35:05;;;;;;;24.57;5.40;;;6.00;99.90;;;;;;5101985;28;20201;-78
2021/03/12 06:37:32;;;;;;;17.27;4.63;;;6.00;99.90;;;;;;5102907;28;20292;-79
2021/03/12 06:39:59;;;;;;;22.80;5.33;;;6.00;99.90;;;;;;5101452;28;20202;-80
2021/03/12 06:42:26;;;;;;;21.43;4.60;;;6.10;99.90;;;;;;5099875;28;20229;-79
2021/03/12 06:44:53;;;;;;;20.97;4.33;;;6.10;99.90;;;;;;5101894;28;20216;-81
2021/03/12 06:47:23;;;;;;;18.50;4.90;;;6.20;99.90;;;;;;5099624;28;20205;-82
2021/03/12 06:49:54;;;;;;;22.37;5.23;;;6.20;99.90;;;;;;5101580;28;20209;-79
2021/03/12 06:52:30;;;;;;;15.07;4.50;;;6.20;99.90;;;;;;5099920;28;20293;-80
2021/03/12 06:54:56;;;;;;;23.17;4.63;;;6.30;99.90;;;;;;5100756;28;20199;-81
2021/03/12 06:57:23;;;;;;;19.33;4.43;;;6.30;99.90;;;;;;5100808;28;20676;-81
2021/03/12 06:59:58;;;;;;;24.20;5.17;;;6.40;99.90;;;;;;5103370;28;20202;-80
2021/03/12 07:02:32;;;;;;;24.03;5.63;;;6.40;99.90;;;;;;5100293;28;20217;-81
2021/03/12 07:04:59;;;;;;;24.90;5.80;;;6.50;99.90;;;;;;5101324;28;20194;-79
2021/03/12 07:07:33;;;;;;;19.13;5.43;;;6.50;99.90;;;;;;5102811;28;20208;-79
2021/03/12 07:10:00;;;;;;;18.23;4.47;;;6.50;99.90;;;;;;5101496;28;20205;-79
2021/03/12 07:12:44;;;;;;;23.33;5.13;;;6.50;99.90;;;;;;5103334;28;20205;-81
2021/03/12 07:15:13;;;;;;;21.27;4.43;;;6.60;99.90;;;;;;5102813;28;20198;-79
2021/03/12 07:17:39;;;;;;;17.37;4.40;;;6.50;99.90;;;;;;5099303;28;20207;-79
2021/03/12 07:20:08;;;;;;;23.97;4.93;;;6.60;99.90;;;;;;5101404;28;20605;-81
2021/03/12 07:22:36;;;;;;;21.87;4.73;;;6.50;99.90;;;;;;5100886;28;20580;-80
2021/03/12 07:25:04;;;;;;;23.23;4.63;;;6.60;99.90;;;;;;5101607;28;20210;-80
2021/03/12 07:27:32;;;;;;;20.37;4.50;;;6.70;99.90;;;;;;5100763;28;20193;-81
2021/03/12 07:30:01;;;;;;;24.90;5.90;;;6.70;99.90;;;;;;5100185;28;20205;-81
2021/03/12 07:32:31;;;;;;;25.30;5.60;;;6.70;99.90;;;;;;5101039;28;20206;-79
2021/03/12 07:34:59;;;;;;;22.37;4.17;;;6.70;99.90;;;;;;5100017;28;20204;-82
2021/03/12 07:37:27;;;;;;;21.07;4.87;;;6.80;99.90;;;;;;5102001;28;20202;-80
2021/03/12 07:39:55;;;;;;;15.93;4.00;;;6.90;99.90;;;;;;5099915;28;20194;-80
2021/03/12 07:42:25;;;;;;;29.63;5.47;;;6.90;99.90;;;;;;5100385;28;20218;-80
2021/03/12 07:44:52;;;;;;;22.20;5.33;;;6.90;99.90;;;;;;5102082;28;20281;-80
2021/03/12 07:47:20;;;;;;;22.97;5.10;;;6.90;99.90;;;;;;5099270;28;20633;-79
2021/03/12 07:49:47;;;;;;;14.80;3.83;;;7.00;99.90;;;;;;5099932;28;20291;-79
2021/03/12 07:52:14;;;;;;;18.87;4.77;;;7.10;99.90;;;;;;5103334;28;20197;-80
2021/03/12 07:54:50;;;;;;;17.63;4.97;;;7.10;99.90;;;;;;5101681;28;20251;-79
2021/03/12 07:57:40;;;;;;;20.40;4.73;;;7.10;99.90;;;;;;5098173;28;20197;-79
2021/03/12 08:00:08;;;;;;;21.20;5.53;;;7.10;99.90;;;;;;5102726;28;20206;-79
2021/03/12 08:02:59;;;;;;;31.43;5.00;;;7.10;99.90;;;;;;5098985;28;20225;-79
2021/03/12 08:05:37;;;;;;;19.07;5.43;;;7.10;99.90;;;;;;5097496;28;20214;-80
2021/03/12 08:08:05;;;;;;;19.57;4.30;;;7.20;99.90;;;;;;5101041;28;20214;-81
2021/03/12 08:10:31;;;;;;;21.17;4.40;;;7.40;99.90;;;;;;5096865;28;20209;-80
2021/03/12 08:12:58;;;;;;;24.07;5.00;;;7.50;99.90;;;;;;5101963;28;20209;-80
2021/03/12 08:15:26;;;;;;;19.00;5.13;;;7.90;99.90;;;;;;5098151;28;20210;-79
2021/03/12 08:18:23;;;;;;;18.67;4.30;;;7.90;99.90;;;;;;5095655;28;20214;-79
2021/03/12 08:20:50;;;;;;;19.00;4.40;;;7.90;99.90;;;;;;5100923;28;20225;-83
2021/03/12 08:23:31;;;;;;;17.30;4.70;;;7.90;99.90;;;;;;5102589;28;20223;-79
2021/03/12 08:25:58;;;;;;;18.50;4.97;;;7.90;99.90;;;;;;5102263;28;20206;-79
2021/03/12 08:28:31;;;;;;;19.90;4.33;;;7.90;99.90;;;;;;5100272;28;20281;-78
2021/03/12 08:31:00;;;;;;;14.40;4.47;;;7.90;99.90;;;;;;5103355;28;20206;-79
2021/03/12 08:33:35;;;;;;;21.67;5.20;;;7.90;99.90;;;;;;5099550;28;20292;-77
2021/03/12 08:36:02;;;;;;;25.50;5.87;;;7.80;99.90;;;;;;5100062;28;20247;-77
2021/03/12 08:38:45;;;;;;;18.80;4.67;;;7.70;99.90;;;;;;5099191;28;20221;-77
2021/03/12 08:41:20;;;;;;;19.90;5.53;;;7.60;99.90;;;;;;5099198;28;20201;-79
2021/03/12 08:43:56;;;;;;;21.33;5.10;;;7.70;99.90;;;;;;5096639;28;20201;-80
2021/03/12 08:46:28;;;;;;;17.50;5.03;;;7.80;99.90;;;;;;5097700;28;20197;-81
2021/03/12 08:48:57;;;;;;;25.03;5.17;;;7.80;99.90;;;;;;5097741;28;20205;-78
2021/03/12 08:51:26;;;;;;;27.40;5.90;;;7.70;99.90;;;;;;5097764;28;20639;-78
2021/03/12 08:53:55;;;;;;;24.33;5.80;;;7.80;99.90;;;;;;5098094;28;20210;-80
2021/03/12 08:56:25;;;;;;;25.30;4.70;;;7.80;99.90;;;;;;5097972;28;20201;-78
2021/03/12 08:58:51;;;;;;;18.50;4.83;;;7.80;99.90;;;;;;5097841;28;20198;-78
2021/03/12 09:01:19;;;;;;;19.23;4.57;;;7.80;99.90;;;;;;5102457;28;20236;-78
2021/03/12 09:03:49;;;;;;;19.43;4.90;;;7.90;99.90;;;;;;5100183;28;20216;-78
2021/03/12 09:06:17;;;;;;;18.27;4.40;;;7.90;99.90;;;;;;5099623;28;20200;-78
2021/03/12 09:08:46;;;;;;;20.77;5.23;;;8.20;99.90;;;;;;5097922;28;21587;-76
2021/03/12 09:11:16;;;;;;;16.57;4.80;;;8.50;99.90;;;;;;5099283;28;20645;-78
2021/03/12 09:13:44;;;;;;;18.47;4.47;;;9.10;99.90;;;;;;5098967;28;20202;-77
2021/03/12 09:16:17;;;;;;;22.33;4.70;;;9.30;99.90;;;;;;5098170;28;20206;-78
2021/03/12 09:18:43;;;;;;;18.83;4.27;;;9.20;99.90;;;;;;5098156;28;20568;-79
2021/03/12 09:21:13;;;;;;;18.30;5.90;;;9.00;99.90;;;;;;5095904;28;20256;-76
2021/03/12 09:23:42;;;;;;;22.90;5.33;;;8.90;99.90;;;;;;5099760;28;20555;-77
2021/03/12 09:26:11;;;;;;;29.17;4.93;;;8.70;99.90;;;;;;5097062;28;20201;-77
2021/03/12 09:28:37;;;;;;;19.07;4.57;;;8.70;99.90;;;;;;5101889;28;20201;-76
2021/03/12 09:31:05;;;;;;;16.53;4.23;;;8.80;99.90;;;;;;5100081;28;20328;-78
2021/03/12 09:33:34;;;;;;;20.33;4.00;;;8.80;99.90;;;;;;5104770;28;20198;-79
2021/03/12 09:36:02;;;;;;;18.73;4.33;;;8.80;99.90;;;;;;5097231;28;20727;-79
2021/03/12 09:38:30;;;;;;;17.23;4.97;;;8.90;99.90;;;;;;5096699;28;20214;-82
2021/03/12 09:40:56;;;;;;;24.57;4.30;;;8.90;99.90;;;;;;5096426;28;20645;-78
2021/03/12 09:43:24;;;;;;;26.13;4.70;;;8.90;99.90;;;;;;5097147;28;20588;-78
2021/03/12 09:45:50;;;;;;;20.87;4.40;;;8.90;99.90;;;;;;5086798;28;20251;-79
2021/03/12 09:48:17;;;;;;;20.50;3.80;;;9.10;99.90;;;;;;5088911;28;20666;-80
2021/03/12 09:50:43;;;;;;;16.83;4.10;;;9.20;99.90;;;;;;5078480;28;20577;-78
2021/03/12 09:53:10;;;;;;;24.53;4.27;;;9.30;99.90;;;;;;5076493;28;20636;-79
2021/03/12 09:55:38;;;;;;;19.93;4.17;;;9.30;99.90;;;;;;5076753;28;20209;-80
2021/03/12 09:58:07;;;;;;;21.30;4.17;;;9.20;99.90;;;;;;5085743;28;20267;-79
2021/03/12 10:00:35;;;;;;;16.93;3.30;;;9.00;99.90;;;;;;5081781;28;20222;-79
2021/03/12 10:03:02;;;;;;;17.50;4.17;;;9.30;99.90;;;;;;5088295;28;20295;-80
2021/03/12 10:05:28;;;;;;;15.27;3.57;;;9.40;99.90;;;;;;5089702;28;20656;-80
2021/03/12 10:08:00;;;;;;;18.67;3.17;;;9.40;99.90;;;;;;5090984;28;20216;-80
2021/03/12 10:10:28;;;;;;;21.07;3.77;;;9.50;99.90;;;;;;5089509;28;20248;-80
2021/03/12 10:12:56;;;;;;;11.77;3.63;;;9.30;99.90;;;;;;5096247;28;20209;-79
2021/03/12 10:15:24;;;;;;;25.33;4.68;;;9.40;99.90;;;;;;5085352;28;20260;-79
2021/03/12 10:17:52;;;;;;;14.45;4.63;;;9.40;99.90;;;;;;5079743;28;20545;-79
2021/03/12 10:20:25;;;;;;;16.85;4.43;;;9.40;99.90;;;;;;5086379;28;20203;-80
2021/03/12 10:22:53;;;;;;;15.20;3.83;;;9.60;99.90;;;;;;5090090;28;20211;-79
2021/03/12 10:25:21;;;;;;;14.73;3.50;;;9.50;99.90;;;;;;5076386;28;20257;-79
2021/03/12 10:27:49;;;;;;;21.83;4.13;;;9.60;99.90;;;;;;5077485;28;20285;-80
2021/03/12 10:30:18;;;;;;;16.13;3.78;;;9.90;99.90;;;;;;5088582;28;20206;-79
2021/03/12 10:32:46;;;;;;;18.00;3.93;;;9.90;99.90;;;;;;5076265;28;20210;-81
2021/03/12 10:35:19;;;;;;;14.32;3.85;;;9.80;99.90;;;;;;5082756;28;20205;-79
2021/03/12 10:37:46;;;;;;;14.80;4.25;;;9.70;99.90;;;;;;5095665;28;20220;-79
2021/03/12 10:40:15;;;;;;;15.43;3.78;;;9.60;99.90;;;;;;5095028;28;20285;-79
2021/03/12 10:42:41;;;;;;;15.67;3.90;;;9.50;99.90;;;;;;5095701;28;20218;-79
2021/03/12 10:45:09;;;;;;;14.10;3.97;;;9.50;99.90;;;;;;5095568;28;20202;-80
2021/03/12 10:47:36;;;;;;;19.17;3.87;;;9.40;99.90;;;;;;5082398;28;20190;-79
2021/03/12 10:50:22;;;;;;;15.33;3.93;;;9.60;99.90;;;;;;5095615;28;20210;-80
2021/03/12 10:52:48;;;;;;;16.15;3.50;;;9.70;99.90;;;;;;5083062;28;20247;-79
2021/03/12 10:55:16;;;;;;;13.25;4.22;;;9.90;99.90;;;;;;5095719;28;20251;-79
2021/03/12 10:57:46;;;;;;;18.75;4.10;;;10.20;99.90;;;;;;5075278;28;20299;-79
2021/03/12 11:00:15;;;;;;;28.65;5.28;;;10.30;99.90;;;;;;5088351;28;20286;-79
2021/03/12 11:02:42;;;;;;;16.45;3.78;;;10.20;99.90;;;;;;5090720;28;20683;-78
2021/03/12 11:05:10;;;;;;;15.30;3.53;;;10.20;99.90;;;;;;5086791;28;20206;-77
2021/03/12 11:07:37;;;;;;;15.60;4.57;;;10.10;99.90;;;;;;5081520;28;20201;-79
2021/03/12 11:10:04;;;;;;;16.27;4.32;;;9.70;99.90;;;;;;5095604;28;20206;-79
2021/03/12 11:12:43;;;;;;;18.33;3.83;;;9.70;99.90;;;;;;5093784;28;20202;-80
2021/03/12 11:15:11;;;;;;;18.65;4.68;;;9.60;99.90;;;;;;5075417;28;20248;-79
2021/03/12 11:17:40;;;;;;;15.73;4.30;;;9.60;99.90;;;;;;5089435;28;20194;-79
2021/03/12 11:20:08;;;;;;;17.27;4.03;;;9.60;99.90;;;;;;5074994;28;20722;-79
2021/03/12 11:22:35;;;;;;;19.27;4.20;;;9.60;99.90;;;;;;5089905;28;20214;-80
2021/03/12 11:25:04;;;;;;;19.70;4.20;;;9.70;99.90;;;;;;5095109;28;20255;-79
2021/03/12 11:27:32;;;;;;;31.02;5.53;;;9.80;99.90;;;;;;5095612;28;20550;-79
2021/03/12 11:29:59;;;;;;;19.65;3.92;;;10.00;99.90;;;;;;5089941;28;20647;-78
2021/03/12 11:32:26;;;;;;;16.17;3.90;;;10.20;99.90;;;;;;5075069;28;20210;-79
2021/03/12 11:34:53;;;;;;;21.67;4.53;;;10.00;99.90;;;;;;5078724;28;20561;-78
2021/03/12 11:37:19;;;;;;;20.48;4.22;;;10.00;99.90;;;;;;5095217;28;20562;-77
2021/03/12 11:39:46;;;;;;;21.20;4.05;;;9.80;99.90;;;;;;5095865;28;20237;-77
2021/03/12 11:42:13;;;;;;;13.40;3.65;;;9.80;99.90;;;;;;5094817;28;20232;-79
2021/03/12 11:44:39;;;;;;;13.50;3.33;;;9.90;99.90;;;;;;5080588;28;20779;-79
2021/03/12 11:47:06;;;;;;;19.45;4.30;;;9.90;99.90;;;;;;5077834;28;20230;-79
2021/03/12 11:49:32;;;;;;;17.07;5.03;;;9.70;99.90;;;;;;5083113;28;20702;-80
2021/03/12 11:51:58;;;;;;;18.50;4.43;;;9.80;99.90;;;;;;5094751;28;20216;-81
2021/03/12 11:54:25;;;;;;;18.23;3.80;;;10.00;99.90;;;;;;5095198;28;20282;-80
2021/03/12 11:56:52;;;;;;;16.48;4.45;;;10.00;99.90;;;;;;5081909;28;20203;-80
2021/03/12 11:59:19;;;;;;;13.83;4.53;;;10.10;99.90;;;;;;5093444;28;20216;-83
2021/03/12 12:01:46;;;;;;;15.13;4.43;;;10.10;99.90;;;;;;5094581;28;20230;-77
2021/03/12 12:04:12;;;;;;;16.70;4.15;;;10.00;99.90;;;;;;5091132;28;20199;-78
2021/03/12 12:06:39;;;;;;;23.77;4.53;;;10.10;99.90;;;;;;5074285;28;20217;-79
2021/03/12 12:09:06;;;;;;;15.45;4.25;;;10.30;99.90;;;;;;5076190;28;20206;-79
2021/03/12 12:11:34;;;;;;;12.98;3.78;;;10.30;99.90;;;;;;5095136;28;20206;-80
2021/03/12 12:14:01;;;;;;;16.60;4.35;;;10.30;99.90;;;;;;5094122;28;20285;-83
2021/03/12 12:16:29;;;;;;;18.25;4.22;;;10.30;99.90;;;;;;5080081;28;20231;-83
2021/03/12 12:18:57;;;;;;;14.23;3.60;;;10.10;99.90;;;;;;5094393;28;20281;-81
2021/03/12 12:21:23;;;;;;;18.13;3.70;;;9.90;99.90;;;;;;5094161;28;20252;-82
2021/03/12 12:23:50;;;;;;;18.47;4.07;;;9.90;99.90;;;;;;5093554;28;20234;-82
2021/03/12 12:26:16;;;;;;;11.85;3.80;;;9.90;99.90;;;;;;5093992;28;20661;-81
2021/03/12 12:28:43;;;;;;;15.35;3.63;;;10.00;99.90;;;;;;5094034;28;20281;-81
2021/03/12 12:31:09;;;;;;;16.60;4.07;;;10.20;99.90;;;;;;5094259;28;20562;-82
2021/03/12 12:33:37;;;;;;;20.83;4.40;;;10.20;99.90;;;;;;5086963;28;20248;-81
2021/03/12 12:36:04;;;;;;;13.85;3.30;;;10.20;99.90;;;;;;5087353;28;20202;-81
2021/03/12 12:38:30;;;;;;;15.27;3.72;;;10.00;99.90;;;;;;5093362;28;20216;-80
2021/03/12 12:40:57;;;;;;;15.57;3.95;;;9.90;99.90;;;;;;5081458;28;20529;-81
2021/03/12 12:43:23;;;;;;;14.07;3.50;;;9.80;99.90;;;;;;5091353;28;20247;-81
2021/03/12 12:45:49;;;;;;;20.60;4.22;;;9.70;99.90;;;;;;5087681;28;20203;-81
2021/03/12 12:48:16;;;;;;;18.93;4.43;;;9.60;99.90;;;;;;5074356;28;20210;-82
2021/03/12 12:50:43;;;;;;;16.00;4.73;;;9.50;99.90;;;;;;5090963;28;20210;-79